Mitchell, SD (57301)

8:53 AM CST on February 24, 2017 (GMT -0600)
Capital Addition | | Change Station

Elev 1316 ft 43.72 °N, 98.03 °W | Updated 7 minutes ago

Overcast
Overcast
22.1 °F
Feels Like 14 °F
N
6.8
Wind Variable Wind from WNW

Today
High -- | Low -- °F
--% Chance of Precip.
Yesterday
High -- | Low -- °F
Precip. -- in
Pressure 30.05 in
Visibility 10.0 miles
Clouds Overcast 11000 ft
Windchill 14 °F
Dew Point 15 °F
Humidity 73%
Rainfall 0.00 in
Snow Depth Not available.
7:16 AM 6:14 PM
Waning Crescent, 5% visible
METAR KMHE 241353Z AUTO 35018KT 10SM OVC110 M06/M09 A3000 RMK AO2 PK WND 01027/1327 SLP176 T10561094
Pressure 30.05 in
Visibility 10.0 miles
Clouds Overcast 11000 ft
Windchill 14 °F
Dew Point 15 °F
Humidity 73%
Rainfall 0.00 in
Snow Depth Not available.
7:16 AM 6:14 PM
Waning Crescent, 5% visible
METAR KMHE 241353Z AUTO 35018KT 10SM OVC110 M06/M09 A3000 RMK AO2 PK WND 01027/1327 SLP176 T10561094

Get Your Daily Forecast Email!

Thanks for signing up!

Be on the lookout for a verification email in your inbox.

You'll start receiving the daily forecast at 8 AM.

×

10-Day Weather Forecast

Almanac

Astronomy

Feb. 24, 2017 Rise Set
Actual Time
Civil Twilight
Nautical Twilight
Astronomical Twilight
Moon
Length of Visible Light
Length of Day
Tomorrow will be .
, % of the Moon is Illuminated

Today's Extremes

State Highs State Lows

Community

WunderPhotos

Upload Photos

1,962,540 photos uploaded!

WunderBlog® & News

Nearby

Air Quality

  Air Quality AQ Index Pollutant
Not available.

Snow Depth

Station Depth Elevation

Earthquake Activity

City Distance Mag. Time & Date
Minimum magnitude displayed is 2.5.

Coastal Water Temperatures

Place Temperature

Stations

Nearby Weather Stations

Station Location Temp. Windchill Dew Point Humidity Wind Precip. Elev Updated Type
                   

Watches & Warnings

There are currently no watches in effect.